createdAt,value
2022-11-22T00:02:19.507Z,4.35
2022-11-22T00:04:45.976Z,4.40
2022-11-22T00:07:12.365Z,4.03
2022-11-22T00:09:38.814Z,3.97
2022-11-22T00:12:05.448Z,4.32
2022-11-22T00:14:32.137Z,3.75
2022-11-22T00:16:58.466Z,3.97
2022-11-22T00:19:24.865Z,3.80
2022-11-22T00:21:51.228Z,4.30
2022-11-22T00:24:17.587Z,4.15
2022-11-22T00:26:43.949Z,4.00
2022-11-22T00:29:10.413Z,3.72
2022-11-22T00:31:36.757Z,3.70
2022-11-22T00:34:03.146Z,3.70
2022-11-22T00:36:29.550Z,4.05
2022-11-22T00:38:55.910Z,3.83
2022-11-22T00:41:22.382Z,3.75
2022-11-22T00:43:48.785Z,4.28
2022-11-22T00:46:15.141Z,4.30
2022-11-22T00:48:41.528Z,3.83
2022-11-22T00:51:07.949Z,3.97
2022-11-22T00:53:34.526Z,3.80
2022-11-22T00:56:02.690Z,3.95
2022-11-22T00:58:29.066Z,3.80
2022-11-22T01:00:56.908Z,3.78
2022-11-22T01:03:23.493Z,3.97
2022-11-22T01:05:49.829Z,3.53
2022-11-22T01:08:16.190Z,4.22
2022-11-22T01:10:42.629Z,4.47
2022-11-22T01:13:09.877Z,4.70
2022-11-22T01:15:36.615Z,3.90
2022-11-22T01:18:02.984Z,4.10
2022-11-22T01:20:30.744Z,4.13
2022-11-22T01:22:58.150Z,3.97
2022-11-22T01:25:24.526Z,4.93
2022-11-22T01:27:50.995Z,4.05
2022-11-22T01:30:17.861Z,4.38
2022-11-22T01:32:44.844Z,3.90
2022-11-22T01:35:11.661Z,4.30
2022-11-22T01:37:38.004Z,4.68
2022-11-22T01:40:04.668Z,5.03
2022-11-22T01:42:51.246Z,4.95
2022-11-22T01:45:29.771Z,4.20
2022-11-22T01:48:04.711Z,4.72
2022-11-22T01:50:33.331Z,4.82
2022-11-22T01:53:03.709Z,4.50
2022-11-22T01:55:30.358Z,4.85
2022-11-22T01:57:57.213Z,5.07
2022-11-22T02:00:23.778Z,4.75
2022-11-22T02:02:51.677Z,4.78
2022-11-22T02:05:19.348Z,5.68
2022-11-22T02:07:53.798Z,5.00
2022-11-22T02:10:23.374Z,4.65
2022-11-22T02:12:51.686Z,5.00
2022-11-22T02:15:18.122Z,4.60
2022-11-22T02:17:45.495Z,4.90
2022-11-22T02:20:12.338Z,5.40
2022-11-22T02:22:53.016Z,4.78
2022-11-22T02:25:37.596Z,4.22
2022-11-22T02:28:04.319Z,5.40
2022-11-22T02:30:30.749Z,5.32
2022-11-22T02:32:57.165Z,5.65
2022-11-22T02:35:27.280Z,5.53
2022-11-22T02:38:03.501Z,4.90
2022-11-22T02:40:34.537Z,6.03
2022-11-22T02:43:05.829Z,5.72
2022-11-22T02:45:32.178Z,5.00
2022-11-22T02:48:09.704Z,5.35
2022-11-22T02:50:36.383Z,5.32
2022-11-22T02:53:02.734Z,5.68
2022-11-22T02:55:29.115Z,6.00
2022-11-22T02:57:55.674Z,6.30
2022-11-22T03:00:22.410Z,5.53
2022-11-22T03:02:49.239Z,6.63
2022-11-22T03:05:15.781Z,6.15
2022-11-22T03:07:42.227Z,7.40
2022-11-22T03:10:08.978Z,7.65
2022-11-22T03:12:35.329Z,7.20
2022-11-22T03:15:01.973Z,7.40
2022-11-22T03:17:28.359Z,7.50
2022-11-22T03:19:54.702Z,7.88
2022-11-22T03:22:21.091Z,8.10
2022-11-22T03:24:47.445Z,9.35
2022-11-22T03:27:13.758Z,10.18
2022-11-22T03:29:40.204Z,9.75
2022-11-22T03:32:06.615Z,10.07
2022-11-22T03:34:32.946Z,10.43
2022-11-22T03:36:59.311Z,10.60
2022-11-22T03:39:25.681Z,11.57
2022-11-22T03:41:52.125Z,10.38
2022-11-22T03:44:18.509Z,12.68
2022-11-22T03:46:44.862Z,11.00
2022-11-22T03:49:11.950Z,13.23
2022-11-22T03:51:38.344Z,12.80
2022-11-22T03:54:04.796Z,13.60
2022-11-22T03:56:31.155Z,12.77
2022-11-22T03:58:57.513Z,13.48
2022-11-22T04:01:23.960Z,14.25
2022-11-22T04:03:50.426Z,14.07
2022-11-22T04:06:16.756Z,15.98
2022-11-22T04:08:43.169Z,14.40
2022-11-22T04:11:09.614Z,16.00
2022-11-22T04:13:54.853Z,15.63
2022-11-22T04:16:21.222Z,15.15
2022-11-22T04:18:47.538Z,14.57
2022-11-22T04:21:32.317Z,14.07
2022-11-22T04:24:17.077Z,15.57
2022-11-22T04:26:43.386Z,15.18
2022-11-22T04:29:10.607Z,15.07
2022-11-22T04:31:56.045Z,15.30
2022-11-22T04:34:22.429Z,15.80
2022-11-22T04:36:48.749Z,16.33
2022-11-22T04:39:15.131Z,15.25
2022-11-22T04:41:41.601Z,15.35
2022-11-22T04:44:27.971Z,15.25
2022-11-22T04:46:54.589Z,15.38
2022-11-22T04:49:20.936Z,15.75
2022-11-22T04:52:05.735Z,15.88
2022-11-22T04:54:32.088Z,16.10
2022-11-22T04:56:58.462Z,15.43
2022-11-22T04:59:24.873Z,15.65
2022-11-22T05:01:52.521Z,15.25
2022-11-22T05:04:18.895Z,16.63
2022-11-22T05:06:45.318Z,16.65
2022-11-22T05:09:11.642Z,16.58
2022-11-22T05:11:38.137Z,17.20
2022-11-22T05:14:04.464Z,16.50
2022-11-22T05:16:30.831Z,17.80
2022-11-22T05:18:59.843Z,16.10
2022-11-22T05:21:27.507Z,15.68
2022-11-22T05:23:56.564Z,16.38
2022-11-22T05:26:33.745Z,15.90
2022-11-22T05:29:05.371Z,15.05
2022-11-22T05:31:33.105Z,15.63
2022-11-22T05:33:59.958Z,14.82
2022-11-22T05:36:26.345Z,15.55
2022-11-22T05:38:53.127Z,14.52
2022-11-22T05:41:19.566Z,14.80
2022-11-22T05:43:46.083Z,14.65
2022-11-22T05:46:24.440Z,14.40
2022-11-22T05:48:52.295Z,14.57
2022-11-22T05:51:23.477Z,13.73
2022-11-22T05:53:49.928Z,13.88
2022-11-22T05:56:18.852Z,13.35
2022-11-22T05:58:45.772Z,14.55
2022-11-22T06:01:14.425Z,12.60
2022-11-22T06:03:41.235Z,12.48
2022-11-22T06:06:08.234Z,13.07
2022-11-22T06:08:38.206Z,12.43
2022-11-22T06:11:24.432Z,11.95
2022-11-22T06:13:53.330Z,12.05
2022-11-22T06:16:19.776Z,11.52
2022-11-22T06:18:46.658Z,11.40
2022-11-22T06:21:24.266Z,11.60
2022-11-22T06:23:54.522Z,10.48
2022-11-22T06:26:22.050Z,11.35
2022-11-22T06:28:49.245Z,11.13
2022-11-22T06:31:20.928Z,12.55
2022-11-22T06:33:47.402Z,11.45
2022-11-22T06:36:16.088Z,8.82
2022-11-22T06:38:43.522Z,10.23
2022-11-22T06:41:12.051Z,9.48
2022-11-22T06:43:43.788Z,8.55
2022-11-22T06:46:15.666Z,8.23
2022-11-22T06:48:42.507Z,7.18
2022-11-22T06:51:17.553Z,7.05
2022-11-22T06:53:48.863Z,7.05
2022-11-22T06:56:20.852Z,7.13
2022-11-22T06:58:48.357Z,6.75
2022-11-22T07:01:20.257Z,7.22
2022-11-22T07:03:47.396Z,6.13
2022-11-22T07:06:15.486Z,6.53
2022-11-22T07:08:42.067Z,6.30
2022-11-22T07:11:10.473Z,4.97
2022-11-22T07:13:37.287Z,6.30
2022-11-22T07:16:05.593Z,6.55
2022-11-22T07:18:32.411Z,6.50
2022-11-22T07:21:10.981Z,6.70
2022-11-22T07:23:40.177Z,5.65
2022-11-22T07:26:06.538Z,6.53
2022-11-22T07:28:32.913Z,5.43
2022-11-22T07:31:03.839Z,5.32
2022-11-22T07:33:30.281Z,5.38
2022-11-22T07:36:09.324Z,5.15
2022-11-22T07:38:36.373Z,5.45
2022-11-22T07:41:03.301Z,4.90
2022-11-22T07:43:29.696Z,5.20
2022-11-22T07:46:00.106Z,4.82
2022-11-22T07:48:26.473Z,4.65
2022-11-22T07:50:52.797Z,4.63
2022-11-22T07:53:19.283Z,4.60
2022-11-22T07:55:45.640Z,5.40
2022-11-22T07:58:12.072Z,4.57
2022-11-22T08:00:38.406Z,4.43
2022-11-22T08:03:04.769Z,5.00
2022-11-22T08:05:31.145Z,4.88
2022-11-22T08:07:57.509Z,4.90
2022-11-22T08:10:23.859Z,4.43
2022-11-22T08:12:50.296Z,4.18
2022-11-22T08:15:17.185Z,4.53
2022-11-22T08:17:43.561Z,4.10
2022-11-22T08:20:10.658Z,5.38
2022-11-22T08:22:40.818Z,5.47
2022-11-22T08:25:12.347Z,5.40
2022-11-22T08:27:42.773Z,5.25
2022-11-22T08:30:10.630Z,5.03
2022-11-22T08:32:37.325Z,4.68
2022-11-22T08:35:03.925Z,4.53
2022-11-22T08:37:30.321Z,4.40
2022-11-22T08:39:57.093Z,4.22
2022-11-22T08:42:23.656Z,4.03
2022-11-22T08:44:50.383Z,4.90
2022-11-22T08:47:17.086Z,4.68
2022-11-22T08:49:43.399Z,4.03
2022-11-22T08:52:09.790Z,4.22
2022-11-22T08:54:37.945Z,4.40
2022-11-22T08:57:04.668Z,3.60
2022-11-22T08:59:33.339Z,4.18
2022-11-22T09:02:00.328Z,3.80
2022-11-22T09:04:26.709Z,4.00
2022-11-22T09:09:39.663Z,3.33
2022-11-22T09:12:06.490Z,3.10
2022-11-22T09:14:32.818Z,3.53
2022-11-22T09:16:59.159Z,4.00
2022-11-22T09:19:25.556Z,4.20
2022-11-22T09:21:51.909Z,13.57
2022-11-22T09:24:18.275Z,5.35
2022-11-22T09:26:45.792Z,5.35
2022-11-22T09:29:12.203Z,4.43
2022-11-22T09:31:38.604Z,3.92
2022-11-22T09:34:04.969Z,4.05
2022-11-22T09:36:32.452Z,4.00
2022-11-22T09:38:59.419Z,3.45
2022-11-22T09:41:52.449Z,4.47
2022-11-22T09:44:31.071Z,3.45
2022-11-22T09:47:12.586Z,2.85
2022-11-22T09:49:50.709Z,3.22
2022-11-22T09:52:25.290Z,3.00
2022-11-22T09:54:57.888Z,3.15
2022-11-22T09:57:44.060Z,2.92
2022-11-22T10:00:20.794Z,3.15
2022-11-22T10:03:23.201Z,4.85
2022-11-22T10:05:51.641Z,2.78
2022-11-22T10:08:29.837Z,2.58
2022-11-22T10:10:57.508Z,2.65
2022-11-22T10:13:31.279Z,2.72
2022-11-22T10:16:03.997Z,2.63
2022-11-22T10:18:37.631Z,2.83
2022-11-22T10:21:04.352Z,2.53
2022-11-22T10:23:32.819Z,3.05
2022-11-22T10:26:02.934Z,2.65
2022-11-22T10:28:41.608Z,2.47
2022-11-22T10:31:16.136Z,2.72
2022-11-22T10:33:52.293Z,2.35
2022-11-22T10:36:38.943Z,2.65
2022-11-22T10:39:19.581Z,2.97
2022-11-22T10:42:23.394Z,6.85
2022-11-22T10:44:54.725Z,3.10
2022-11-22T10:47:54.946Z,5.05
2022-11-22T10:50:28.799Z,3.83
2022-11-22T10:53:03.584Z,3.42
2022-11-22T10:55:38.623Z,2.50
2022-11-22T10:58:16.890Z,3.20
2022-11-22T11:00:50.558Z,2.30
2022-11-22T11:03:30.574Z,2.42
2022-11-22T11:06:33.480Z,2.47
2022-11-22T11:12:13.332Z,2.45
2022-11-22T11:14:43.402Z,3.03
2022-11-22T11:17:16.790Z,2.92
2022-11-22T11:19:44.498Z,2.40
2022-11-22T11:22:42.670Z,3.00
2022-11-22T11:25:27.339Z,2.58
2022-11-22T11:27:53.909Z,2.83
2022-11-22T11:30:20.417Z,2.50
2022-11-22T11:32:55.589Z,2.35
2022-11-22T11:35:26.768Z,2.47
2022-11-22T11:37:53.317Z,2.45
2022-11-22T11:40:31.149Z,2.60
2022-11-22T11:43:20.014Z,2.63
2022-11-22T11:45:46.639Z,2.47
2022-11-22T11:48:30.935Z,2.63
2022-11-22T11:51:16.266Z,2.70
2022-11-22T11:53:50.765Z,2.60
2022-11-22T11:56:33.613Z,2.50
2022-11-22T11:59:03.038Z,2.30
2022-11-22T12:01:33.235Z,2.22
2022-11-22T12:04:04.183Z,2.80
2022-11-22T12:06:31.839Z,2.25
2022-11-22T12:08:59.005Z,2.22
2022-11-22T12:11:54.511Z,2.22
2022-11-22T12:14:24.297Z,3.08
2022-11-22T12:16:54.413Z,2.38
2022-11-22T12:19:24.828Z,2.55
2022-11-22T12:21:54.088Z,2.10
2022-11-22T12:24:48.816Z,2.35
2022-11-22T12:27:14.248Z,2.50
2022-11-22T12:29:42.128Z,1.92
2022-11-22T12:32:17.022Z,2.60
2022-11-22T12:34:46.312Z,2.55
2022-11-22T12:37:17.658Z,2.33
2022-11-22T12:39:47.256Z,2.40
2022-11-22T12:42:23.245Z,2.20
2022-11-22T12:44:54.357Z,2.40
2022-11-22T12:47:24.838Z,2.35
2022-11-22T12:49:58.116Z,2.78
2022-11-22T12:52:43.378Z,2.97
2022-11-22T12:55:17.853Z,2.30
2022-11-22T12:57:51.656Z,2.00
2022-11-22T13:00:21.944Z,2.58
2022-11-22T13:03:21.030Z,1.85
2022-11-22T13:05:49.993Z,2.28
2022-11-22T13:08:19.056Z,1.75
2022-11-22T13:10:49.254Z,1.83
2022-11-22T13:13:28.241Z,2.10
2022-11-22T13:15:56.003Z,2.45
2022-11-22T13:18:27.521Z,2.10
2022-11-22T13:21:20.837Z,2.17
2022-11-22T13:24:02.529Z,2.15
2022-11-22T13:27:06.512Z,2.67
2022-11-22T13:29:35.510Z,2.78
2022-11-22T13:32:01.773Z,2.10
2022-11-22T13:34:28.776Z,2.45
2022-11-22T13:37:08.361Z,2.03
2022-11-22T13:39:39.355Z,1.75
2022-11-22T13:42:06.452Z,2.03
2022-11-22T13:44:33.029Z,2.10
2022-11-22T13:47:04.703Z,2.65
2022-11-22T13:49:36.450Z,3.00
2022-11-22T13:52:09.379Z,2.80
2022-11-22T13:54:35.661Z,2.97
2022-11-22T13:57:20.752Z,2.08
2022-11-22T13:59:47.095Z,2.17
2022-11-22T14:02:22.344Z,1.85
2022-11-22T14:05:03.643Z,1.95
2022-11-22T14:07:35.438Z,2.75
2022-11-22T14:10:02.976Z,2.58
2022-11-22T14:12:37.402Z,2.80
2022-11-22T14:15:15.715Z,2.28
2022-11-22T14:18:06.820Z,2.88
2022-11-22T14:20:33.085Z,2.20
2022-11-22T14:23:12.933Z,2.17
2022-11-22T14:25:57.723Z,1.50
2022-11-22T14:28:45.172Z,1.70
2022-11-22T14:31:13.645Z,1.92
2022-11-22T14:34:18.527Z,2.33
2022-11-22T14:36:46.617Z,2.03
2022-11-22T14:39:55.896Z,1.77
2022-11-22T14:42:41.827Z,2.10
2022-11-22T14:45:11.245Z,2.97
2022-11-22T14:47:52.107Z,2.35
2022-11-22T14:50:48.137Z,2.10
2022-11-22T14:53:23.046Z,2.50
2022-11-22T14:55:51.118Z,1.90
2022-11-22T14:58:23.785Z,2.03
2022-11-22T15:01:23.331Z,2.05
2022-11-22T15:09:11.518Z,1.88
2022-11-22T15:09:15.364Z,2.22
2022-11-22T15:10:32.987Z,1.52
2022-11-22T15:13:37.858Z,1.98
2022-11-22T15:59:28.717Z,1.77
2022-11-22T16:01:57.876Z,2.03
2022-11-22T16:04:29.955Z,1.88
2022-11-22T16:06:59.109Z,2.78
2022-11-22T16:09:36.408Z,1.60
2022-11-22T16:12:06.013Z,1.50
2022-11-22T16:14:44.679Z,1.70
2022-11-22T16:17:26.396Z,4.10
2022-11-22T16:19:53.860Z,1.67
2022-11-22T16:22:31.009Z,1.77
2022-11-22T16:25:32.547Z,1.80
2022-11-22T16:28:01.379Z,1.77
2022-11-22T16:30:27.737Z,1.83
2022-11-22T16:32:56.349Z,1.90
2022-11-22T16:35:29.477Z,1.90
2022-11-22T16:37:56.281Z,1.60
2022-11-22T16:40:22.768Z,1.48
2022-11-22T16:42:49.281Z,1.70
2022-11-22T16:45:17.279Z,1.70
2022-11-22T16:47:44.778Z,1.60
2022-11-22T16:50:16.092Z,1.50
2022-11-22T16:52:44.567Z,1.48
2022-11-22T16:55:19.213Z,1.52
2022-11-22T16:57:45.966Z,1.50
2022-11-22T17:00:13.122Z,1.70
2022-11-22T17:02:39.953Z,3.20
2022-11-22T17:05:07.474Z,1.85
2022-11-22T17:07:34.425Z,1.80
2022-11-22T17:10:00.894Z,1.70
2022-11-22T17:12:33.262Z,2.17
2022-11-22T17:15:00.357Z,1.90
2022-11-22T17:17:26.778Z,1.70
2022-11-22T17:19:53.927Z,1.70
2022-11-22T17:22:20.575Z,2.00
2022-11-22T17:24:47.121Z,1.52
2022-11-22T17:27:14.023Z,1.92
2022-11-22T17:29:56.491Z,1.65
2022-11-22T17:32:22.852Z,1.70
2022-11-22T17:34:49.234Z,2.95
2022-11-22T17:37:15.617Z,3.22
2022-11-22T17:39:41.957Z,2.10
2022-11-22T17:42:08.378Z,2.00
2022-11-22T17:44:34.802Z,1.52
2022-11-22T17:47:01.199Z,2.15
2022-11-22T17:49:28.279Z,2.10
2022-11-22T17:51:55.022Z,1.40
2022-11-22T17:54:21.432Z,1.35
2022-11-22T17:56:47.802Z,1.58
2022-11-22T17:59:14.174Z,1.80
2022-11-22T18:01:40.536Z,2.40
2022-11-22T18:04:07.965Z,1.65
2022-11-22T18:06:34.292Z,1.52
2022-11-22T18:09:00.860Z,1.40
2022-11-22T18:11:27.299Z,1.70
2022-11-22T18:13:53.807Z,2.75
2022-11-22T18:16:20.884Z,1.40
2022-11-22T18:19:02.567Z,1.40
2022-11-22T18:21:30.854Z,1.67
2022-11-22T18:23:58.466Z,1.42
2022-11-22T18:26:41.590Z,1.83
2022-11-22T18:31:55.642Z,1.70
2022-11-22T18:34:22.663Z,1.73
2022-11-22T18:39:38.973Z,1.92
2022-11-22T18:42:07.147Z,2.00
2022-11-22T18:44:33.502Z,4.45
2022-11-22T18:46:59.940Z,3.00
2022-11-22T18:49:26.546Z,2.38
2022-11-22T18:51:52.949Z,2.60
2022-11-22T18:54:20.071Z,2.40
2022-11-22T18:56:46.440Z,2.75
2022-11-22T18:59:12.977Z,2.83
2022-11-22T19:01:40.022Z,3.88
2022-11-22T19:04:06.762Z,4.47
2022-11-22T19:06:33.143Z,6.93
2022-11-22T19:08:59.637Z,3.00
2022-11-22T19:11:26.064Z,3.30
2022-11-22T19:13:52.756Z,3.60
2022-11-22T19:16:21.756Z,3.63
2022-11-22T19:18:48.364Z,3.13
2022-11-22T19:21:25.963Z,3.22
2022-11-22T19:23:52.718Z,3.42
2022-11-22T19:26:21.354Z,3.50
2022-11-22T19:28:48.414Z,3.53
2022-11-22T19:31:19.809Z,3.80
2022-11-22T19:33:46.316Z,3.85
2022-11-22T19:36:14.821Z,3.47
2022-11-22T19:38:41.848Z,3.90
2022-11-22T19:41:09.628Z,3.28
2022-11-22T19:43:36.726Z,3.17
2022-11-22T19:46:03.874Z,4.05
2022-11-22T19:48:30.247Z,3.65
2022-11-22T19:50:57.007Z,3.42
2022-11-22T19:53:24.110Z,3.65
2022-11-22T19:55:50.498Z,3.30
2022-11-22T19:58:18.658Z,4.28
2022-11-22T20:00:45.090Z,3.30
2022-11-22T20:03:13.250Z,3.30
2022-11-22T20:05:41.423Z,3.50
2022-11-22T20:08:07.757Z,3.03
2022-11-22T20:10:35.004Z,2.90
2022-11-22T20:13:01.332Z,2.65
2022-11-22T20:15:27.768Z,6.43
2022-11-22T20:17:54.177Z,4.70
2022-11-22T20:20:20.558Z,4.57
2022-11-22T20:22:46.939Z,4.38
2022-11-22T20:25:13.309Z,4.13
2022-11-22T20:27:39.817Z,4.40
2022-11-22T20:30:06.637Z,3.88
2022-11-22T20:32:33.174Z,3.65
2022-11-22T20:34:59.556Z,3.35
2022-11-22T20:37:25.958Z,3.40
2022-11-22T20:39:52.349Z,3.58
2022-11-22T20:42:35.239Z,3.13
2022-11-22T20:45:03.369Z,4.00
2022-11-22T20:47:30.687Z,3.65
2022-11-22T20:49:57.075Z,3.50
2022-11-22T20:52:23.392Z,3.53
2022-11-22T20:54:49.737Z,2.90
2022-11-22T20:57:16.265Z,3.17
2022-11-22T20:59:42.731Z,3.88
2022-11-22T21:02:11.996Z,3.38
2022-11-22T21:04:38.344Z,3.95
2022-11-22T21:07:04.888Z,3.80
2022-11-22T21:09:31.577Z,4.28
2022-11-22T21:11:57.960Z,3.97
2022-11-22T21:14:24.425Z,4.25
2022-11-22T21:16:50.800Z,3.90
2022-11-22T21:19:17.770Z,4.55
2022-11-22T21:21:44.169Z,4.10
2022-11-22T21:24:11.934Z,3.92
2022-11-22T21:26:38.277Z,4.13
2022-11-22T21:29:12.901Z,4.82
2022-11-22T21:31:42.200Z,4.22
2022-11-22T21:34:08.776Z,4.55
2022-11-22T21:36:37.066Z,6.80
2022-11-22T21:39:03.524Z,9.27
2022-11-22T21:41:45.362Z,7.78
2022-11-22T21:44:11.987Z,5.63
2022-11-22T21:46:38.433Z,7.63
2022-11-22T21:49:05.101Z,9.05
2022-11-22T21:51:32.209Z,7.32
2022-11-22T21:53:59.897Z,6.55
2022-11-22T21:56:26.769Z,12.65
2022-11-22T21:58:53.276Z,8.45
2022-11-22T22:01:19.790Z,6.40
2022-11-22T22:03:46.316Z,6.72
2022-11-22T22:06:12.736Z,5.85
2022-11-22T22:08:40.727Z,5.13
2022-11-22T22:11:09.052Z,5.13
2022-11-22T22:13:35.567Z,5.32
2022-11-22T22:16:06.454Z,4.82
2022-11-22T22:18:37.189Z,4.93
2022-11-22T22:21:05.836Z,5.10
2022-11-22T22:23:33.600Z,4.70
2022-11-22T22:26:01.672Z,5.18
2022-11-22T22:28:32.125Z,4.82
2022-11-22T22:31:05.467Z,4.72
2022-11-22T22:33:32.341Z,5.03
2022-11-22T22:35:59.743Z,5.05
2022-11-22T22:38:26.518Z,4.90
2022-11-22T22:40:55.027Z,5.10
2022-11-22T22:43:25.094Z,5.85
2022-11-22T22:45:51.855Z,5.60
2022-11-22T22:48:18.968Z,5.90
2022-11-22T22:50:45.830Z,8.20
2022-11-22T22:53:12.885Z,6.97
2022-11-22T22:55:39.267Z,7.93
2022-11-22T22:58:05.853Z,5.35
2022-11-22T23:00:32.353Z,7.05
2022-11-22T23:02:59.103Z,4.82
2022-11-22T23:05:25.608Z,5.18
2022-11-22T23:07:52.204Z,4.55
2022-11-22T23:10:18.586Z,7.13
2022-11-22T23:12:45.082Z,5.22
2022-11-22T23:15:11.456Z,4.80
2022-11-22T23:17:37.880Z,4.90
2022-11-22T23:20:04.527Z,4.80
2022-11-22T23:22:30.912Z,4.75
2022-11-22T23:24:57.363Z,3.90
2022-11-22T23:27:23.728Z,4.50
2022-11-22T23:29:50.074Z,4.97
2022-11-22T23:32:16.642Z,5.38
2022-11-22T23:34:43.005Z,4.47
2022-11-22T23:37:09.368Z,4.95
2022-11-22T23:39:35.758Z,4.70
2022-11-22T23:42:02.140Z,4.22
2022-11-22T23:44:28.480Z,4.65
2022-11-22T23:46:55.045Z,4.32
2022-11-22T23:49:21.418Z,4.63
2022-11-22T23:51:50.363Z,4.88
2022-11-22T23:54:17.024Z,4.28
2022-11-22T23:56:43.403Z,4.22
2022-11-22T23:59:10.305Z,4.65
